Time;durP1;ratioP1;P1;durP2;ratioP2;P2;SDS_P1;SDS_P2;PMS_P1;PMS_P2;Temp;Humidity;BMP_temperature;BMP_pressure;BME280_temperature;BME280_humidity;BME280_pressure;Samples;Min_cycle;Max_cycle;Signal;HPM_P1;HPM_P2
2023/11/26 00:01:35;;;;;;;8.77;2.50;;;4.10;99.90;;;;;;6207340;23;20012;-76
2023/11/26 00:04:01;;;;;;;10.52;2.38;;;4.10;99.90;;;;;;6205961;23;20015;-76
2023/11/26 00:06:26;;;;;;;15.02;1.90;;;4.10;99.90;;;;;;6207245;23;20008;-76
2023/11/26 00:08:52;;;;;;;7.72;1.48;;;4.10;99.90;;;;;;6207576;23;20019;-76
2023/11/26 00:11:18;;;;;;;5.97;2.17;;;4.00;99.90;;;;;;6208743;23;20108;-75
2023/11/26 00:13:43;;;;;;;11.23;1.80;;;4.00;99.90;;;;;;6206169;23;20469;-76
2023/11/26 00:16:09;;;;;;;9.40;1.17;;;4.00;99.90;;;;;;6207321;23;20339;-75
2023/11/26 00:18:37;;;;;;;6.00;1.20;;;4.00;99.90;;;;;;6209218;23;20013;-76
2023/11/26 00:21:03;;;;;;;11.07;2.05;;;4.00;99.90;;;;;;6207890;23;20005;-76
2023/11/26 00:23:28;;;;;;;10.40;1.73;;;4.00;99.90;;;;;;6208778;23;20019;-75
2023/11/26 00:25:54;;;;;;;5.80;1.20;;;4.00;99.90;;;;;;6205768;23;20103;-77
2023/11/26 00:28:19;;;;;;;5.45;1.20;;;4.00;99.90;;;;;;6208466;23;20677;-76
2023/11/26 00:30:45;;;;;;;4.95;1.02;;;4.00;99.90;;;;;;6207657;23;20028;-75
2023/11/26 00:33:11;;;;;;;7.43;1.35;;;4.00;99.90;;;;;;6208446;23;20066;-76
2023/11/26 00:35:37;;;;;;;8.45;1.40;;;4.00;99.90;;;;;;6208851;23;20087;-76
2023/11/26 00:38:02;;;;;;;7.13;1.15;;;4.00;99.90;;;;;;6207351;23;20051;-76
2023/11/26 00:40:28;;;;;;;9.32;2.47;;;3.90;99.90;;;;;;6207082;23;20012;-76
2023/11/26 00:42:53;;;;;;;9.07;1.05;;;4.00;99.90;;;;;;6207153;23;20027;-77
2023/11/26 00:45:19;;;;;;;5.97;1.50;;;3.90;99.90;;;;;;6206862;23;20013;-76
2023/11/26 00:47:45;;;;;;;4.78;1.20;;;3.90;99.90;;;;;;6205536;23;20244;-77
2023/11/26 00:50:11;;;;;;;2.10;0.90;;;3.90;99.90;;;;;;6208930;23;20087;-75
2023/11/26 00:52:37;;;;;;;8.07;0.93;;;3.90;99.90;;;;;;6207357;23;20055;-76
2023/11/26 00:55:03;;;;;;;7.85;1.67;;;3.90;99.90;;;;;;6207058;23;20029;-75
2023/11/26 00:57:29;;;;;;;4.15;1.52;;;3.80;99.90;;;;;;6207142;23;20021;-76
2023/11/26 00:59:54;;;;;;;4.68;1.50;;;3.80;99.90;;;;;;6207209;23;20036;-77
2023/11/26 01:02:22;;;;;;;11.05;1.40;;;3.80;99.90;;;;;;6206756;23;20017;-75
2023/11/26 01:04:48;;;;;;;6.80;0.80;;;3.80;99.90;;;;;;6205598;23;20028;-75
2023/11/26 01:07:14;;;;;;;13.77;1.77;;;3.70;99.90;;;;;;6206692;23;20110;-75
2023/11/26 01:09:39;;;;;;;9.25;1.27;;;3.80;99.90;;;;;;6207115;23;20051;-75
2023/11/26 01:12:05;;;;;;;3.30;0.85;;;3.70;99.90;;;;;;6207120;23;20828;-77
2023/11/26 01:14:31;;;;;;;5.80;0.80;;;3.70;99.90;;;;;;6206561;23;20067;-76
2023/11/26 01:16:57;;;;;;;6.65;1.35;;;3.70;99.90;;;;;;6206720;23;20016;-75
2023/11/26 01:19:22;;;;;;;3.10;0.73;;;3.70;99.90;;;;;;6208935;23;20028;-77
2023/11/26 01:21:48;;;;;;;8.40;2.15;;;3.70;99.90;;;;;;6206714;23;20442;-75
2023/11/26 01:24:14;;;;;;;5.68;1.73;;;3.70;99.90;;;;;;6206779;23;20501;-76
2023/11/26 01:26:40;;;;;;;6.13;1.67;;;3.70;99.90;;;;;;6208534;23;20012;-76
2023/11/26 01:29:05;;;;;;;3.53;0.68;;;3.70;99.90;;;;;;6207044;23;20337;-76
2023/11/26 01:31:31;;;;;;;9.25;1.08;;;3.60;99.90;;;;;;6206263;23;20690;-76
2023/11/26 01:33:59;;;;;;;5.80;1.10;;;3.60;99.90;;;;;;6207187;23;20011;-74
2023/11/26 01:36:24;;;;;;;11.52;2.55;;;3.70;99.90;;;;;;6206302;23;20005;-76
2023/11/26 01:38:50;;;;;;;6.75;1.25;;;3.60;99.90;;;;;;6206832;23;20016;-75
2023/11/26 01:41:16;;;;;;;6.60;1.48;;;3.60;99.90;;;;;;6208145;23;20016;-76
2023/11/26 01:43:41;;;;;;;5.53;0.90;;;3.60;99.90;;;;;;6207147;23;20012;-75
2023/11/26 01:46:10;;;;;;;10.18;1.92;;;3.60;99.90;;;;;;6208408;23;20011;-77
2023/11/26 01:48:36;;;;;;;6.25;0.85;;;3.60;99.90;;;;;;6208031;23;20064;-75
2023/11/26 01:51:05;;;;;;;7.57;1.48;;;3.60;99.90;;;;;;6207055;23;20005;-76
2023/11/26 01:53:32;;;;;;;7.47;1.77;;;3.60;99.90;;;;;;6206910;23;20005;-76
2023/11/26 01:55:59;;;;;;;6.88;1.05;;;3.50;99.90;;;;;;6206754;23;20084;-76
2023/11/26 01:58:25;;;;;;;4.97;1.30;;;3.50;99.90;;;;;;6210236;23;20021;-75
2023/11/26 02:00:51;;;;;;;3.78;0.55;;;3.50;99.90;;;;;;6208675;23;20009;-77
2023/11/26 02:03:17;;;;;;;3.22;0.85;;;3.50;99.90;;;;;;6208276;23;20024;-76
2023/11/26 02:05:43;;;;;;;4.50;0.77;;;3.40;99.90;;;;;;6208690;23;20016;-76
2023/11/26 02:08:09;;;;;;;4.35;0.77;;;3.50;99.90;;;;;;6209476;23;20013;-76
2023/11/26 02:10:35;;;;;;;3.28;1.05;;;3.40;99.90;;;;;;6210320;23;20012;-76
2023/11/26 02:13:05;;;;;;;4.95;0.95;;;3.40;99.90;;;;;;6209371;23;20666;-77
2023/11/26 02:15:31;;;;;;;9.35;1.33;;;3.30;99.90;;;;;;6210406;23;20403;-75
2023/11/26 02:17:57;;;;;;;4.70;0.63;;;3.30;99.90;;;;;;6208760;23;20067;-77
2023/11/26 02:20:23;;;;;;;6.45;1.40;;;3.20;99.90;;;;;;6209955;23;20433;-76
2023/11/26 02:22:49;;;;;;;3.92;0.90;;;3.20;99.90;;;;;;6206308;23;20013;-77
2023/11/26 02:25:14;;;;;;;6.20;1.08;;;3.10;99.90;;;;;;6209991;23;20761;-76
2023/11/26 02:27:40;;;;;;;6.32;1.13;;;3.10;99.90;;;;;;6208095;23;20017;-77
2023/11/26 02:30:06;;;;;;;10.80;1.70;;;3.10;99.90;;;;;;6208598;23;20024;-76
2023/11/26 02:32:32;;;;;;;4.15;0.90;;;3.10;99.90;;;;;;6209274;23;20016;-76
2023/11/26 02:34:58;;;;;;;3.65;1.10;;;3.00;99.90;;;;;;6206989;23;20019;-75
2023/11/26 02:37:23;;;;;;;8.88;0.90;;;3.00;99.90;;;;;;6209376;23;20021;-76
2023/11/26 02:39:49;;;;;;;4.25;0.73;;;3.00;99.90;;;;;;6208640;23;20086;-76
2023/11/26 02:42:14;;;;;;;5.75;1.45;;;3.00;99.90;;;;;;6209669;23;20016;-75
2023/11/26 02:44:40;;;;;;;4.43;0.98;;;3.00;99.90;;;;;;6207799;23;20454;-77
2023/11/26 02:47:07;;;;;;;6.00;0.80;;;3.00;99.90;;;;;;6208312;23;20374;-76
2023/11/26 02:49:33;;;;;;;10.95;1.92;;;3.00;99.90;;;;;;6209433;23;20017;-75
2023/11/26 02:51:59;;;;;;;8.43;0.95;;;3.00;99.90;;;;;;6206561;23;20024;-76
2023/11/26 02:54:24;;;;;;;5.93;1.00;;;3.00;99.90;;;;;;6210104;23;20084;-77
2023/11/26 02:56:50;;;;;;;10.05;1.50;;;3.00;99.90;;;;;;6206182;23;20013;-76
2023/11/26 02:59:16;;;;;;;6.30;1.30;;;3.10;99.90;;;;;;6207492;23;20616;-77
2023/11/26 03:01:42;;;;;;;14.27;2.03;;;3.10;99.90;;;;;;6207590;23;20040;-75
2023/11/26 03:04:08;;;;;;;5.00;1.40;;;3.20;99.90;;;;;;6210015;23;20579;-75
2023/11/26 03:06:35;;;;;;;8.40;1.50;;;3.30;99.90;;;;;;6209395;23;20004;-77
2023/11/26 03:09:09;;;;;;;6.20;1.40;;;3.40;99.90;;;;;;6206068;23;20394;-75
2023/11/26 03:14:19;;;;;;;6.13;0.70;;;3.60;99.90;;;;;;6208510;23;20457;-77
2023/11/26 03:16:45;;;;;;;4.18;1.08;;;3.70;99.90;;;;;;6207874;23;20000;-77
2023/11/26 03:19:15;;;;;;;4.70;1.17;;;3.80;99.90;;;;;;6207680;23;20005;-75
2023/11/26 03:21:44;;;;;;;10.75;1.35;;;3.90;99.90;;;;;;6209198;23;20009;-75
2023/11/26 03:24:13;;;;;;;10.55;0.88;;;4.00;99.90;;;;;;6208656;23;20001;-75
2023/11/26 03:26:39;;;;;;;10.50;2.10;;;4.00;99.90;;;;;;6209074;23;20015;-76
2023/11/26 03:29:06;;;;;;;3.78;0.93;;;4.10;99.90;;;;;;6206220;23;20005;-75
2023/11/26 03:31:31;;;;;;;6.45;0.88;;;4.10;99.90;;;;;;6209025;23;20024;-76
2023/11/26 03:33:57;;;;;;;11.68;1.13;;;4.10;99.90;;;;;;6207844;23;20012;-77
2023/11/26 03:36:23;;;;;;;8.20;0.60;;;4.10;99.90;;;;;;6209160;23;20083;-76
2023/11/26 03:38:48;;;;;;;11.73;2.33;;;4.10;99.90;;;;;;6206393;23;20040;-77
2023/11/26 03:41:14;;;;;;;4.13;1.13;;;4.10;99.90;;;;;;6207534;23;20009;-76
2023/11/26 03:43:40;;;;;;;6.22;1.40;;;4.00;99.90;;;;;;6207612;23;20044;-76
2023/11/26 03:46:06;;;;;;;6.03;0.43;;;4.00;99.90;;;;;;6207769;23;20042;-76
2023/11/26 03:48:32;;;;;;;5.80;0.50;;;4.00;99.90;;;;;;6207293;23;20009;-75
2023/11/26 03:50:58;;;;;;;3.42;1.00;;;4.00;99.90;;;;;;6207486;23;20069;-75
2023/11/26 03:53:24;;;;;;;5.90;0.60;;;4.00;99.90;;;;;;6209370;23;20015;-76
2023/11/26 03:55:49;;;;;;;6.03;0.77;;;4.00;99.90;;;;;;6205993;23;20004;-77
2023/11/26 03:58:18;;;;;;;2.72;0.30;;;4.10;99.90;;;;;;6208937;23;20054;-76
2023/11/26 04:00:44;;;;;;;7.32;1.45;;;4.10;99.90;;;;;;6205903;23;20394;-77
2023/11/26 04:03:09;;;;;;;3.90;0.95;;;4.20;99.90;;;;;;6207087;23;20016;-75
2023/11/26 04:05:35;;;;;;;3.53;0.55;;;4.20;99.90;;;;;;6209367;23;20342;-75
2023/11/26 04:08:01;;;;;;;5.38;0.50;;;4.20;99.90;;;;;;6206219;23;20016;-75
2023/11/26 04:10:27;;;;;;;2.65;0.50;;;4.20;99.90;;;;;;6207231;23;20677;-75
2023/11/26 04:12:53;;;;;;;6.57;0.60;;;4.30;99.90;;;;;;6207766;23;20059;-76
2023/11/26 04:15:22;;;;;;;5.07;0.50;;;4.30;99.90;;;;;;6208861;23;20378;-75
2023/11/26 04:17:48;;;;;;;4.55;0.70;;;4.30;99.90;;;;;;6205462;23;20091;-76
2023/11/26 04:20:14;;;;;;;4.35;0.40;;;4.30;99.90;;;;;;6207549;23;20382;-75
2023/11/26 04:22:39;;;;;;;9.48;0.75;;;4.40;99.90;;;;;;6208453;23;20036;-77
2023/11/26 04:25:05;;;;;;;3.33;0.35;;;4.40;99.90;;;;;;6206025;23;20343;-77
2023/11/26 04:27:31;;;;;;;3.53;0.70;;;4.40;99.90;;;;;;6208634;23;20019;-76
2023/11/26 04:29:58;;;;;;;3.35;0.47;;;4.50;99.90;;;;;;6205942;23;20016;-75
2023/11/26 04:32:23;;;;;;;4.70;0.60;;;4.50;99.90;;;;;;6208208;23;20028;-77
2023/11/26 04:34:49;;;;;;;3.90;0.80;;;4.50;99.90;;;;;;6207742;23;20438;-76
2023/11/26 04:37:15;;;;;;;7.15;1.05;;;4.50;99.90;;;;;;6209490;23;20454;-77
2023/11/26 04:39:41;;;;;;;8.18;0.88;;;4.50;99.90;;;;;;6209522;23;20027;-77
2023/11/26 04:42:07;;;;;;;9.68;0.85;;;4.60;99.90;;;;;;6205436;23;20514;-76
2023/11/26 04:44:33;;;;;;;5.47;0.70;;;4.60;99.90;;;;;;6207016;23;20027;-75
2023/11/26 04:46:59;;;;;;;4.60;0.70;;;4.60;99.90;;;;;;6207541;23;20013;-77
2023/11/26 04:49:25;;;;;;;10.73;0.55;;;4.70;99.90;;;;;;6206852;23;20017;-76
2023/11/26 04:51:51;;;;;;;5.93;0.85;;;4.70;99.90;;;;;;6207318;23;20004;-76
2023/11/26 04:54:17;;;;;;;3.85;0.35;;;4.70;99.90;;;;;;6207179;23;20067;-76
2023/11/26 04:56:43;;;;;;;5.90;1.25;;;4.80;99.90;;;;;;6207994;23;20071;-75
2023/11/26 04:59:08;;;;;;;7.22;1.00;;;4.80;99.90;;;;;;6208389;23;20009;-75
2023/11/26 05:01:44;;;;;;;5.13;0.88;;;4.80;99.90;;;;;;6208302;23;20012;-75
2023/11/26 05:04:16;;;;;;;5.28;0.75;;;4.80;99.90;;;;;;6206811;23;20031;-77
2023/11/26 05:06:45;;;;;;;8.02;0.60;;;4.90;99.90;;;;;;6208622;23;20016;-76
2023/11/26 05:09:11;;;;;;;3.75;0.55;;;4.90;99.90;;;;;;6208019;23;20012;-76
2023/11/26 05:11:40;;;;;;;6.30;1.38;;;4.90;99.90;;;;;;6206830;23;20442;-76
2023/11/26 05:14:06;;;;;;;8.07;0.75;;;4.90;99.90;;;;;;6207454;23;20478;-76
2023/11/26 05:16:32;;;;;;;3.40;0.85;;;4.90;99.90;;;;;;6207438;23;20096;-77
2023/11/26 05:18:57;;;;;;;3.85;0.30;;;4.90;99.90;;;;;;6207393;23;20488;-76
2023/11/26 05:21:23;;;;;;;3.28;0.38;;;4.90;99.90;;;;;;6208829;23;20012;-77
2023/11/26 05:23:48;;;;;;;8.50;1.05;;;4.90;99.90;;;;;;6208257;23;20406;-77
2023/11/26 05:26:15;;;;;;;2.97;0.60;;;5.00;99.90;;;;;;6208921;23;20012;-77
2023/11/26 05:28:40;;;;;;;4.65;0.28;;;5.00;99.90;;;;;;6207345;23;20486;-77
2023/11/26 05:31:06;;;;;;;11.73;1.15;;;5.00;99.90;;;;;;6209012;23;20013;-76
2023/11/26 05:33:32;;;;;;;3.17;0.50;;;5.00;99.90;;;;;;6208402;23;20035;-76
2023/11/26 05:35:57;;;;;;;6.07;1.27;;;5.00;99.90;;;;;;6207641;23;20029;-77
2023/11/26 05:38:23;;;;;;;2.58;0.75;;;5.00;99.90;;;;;;6210356;23;20304;-76
2023/11/26 05:40:48;;;;;;;11.63;1.40;;;5.00;99.90;;;;;;6207318;23;20016;-75
2023/11/26 05:43:14;;;;;;;3.58;1.02;;;5.00;99.90;;;;;;6208436;23;20013;-76
2023/11/26 05:45:40;;;;;;;2.65;0.73;;;5.00;99.90;;;;;;6208856;23;20016;-76
2023/11/26 05:48:08;;;;;;;4.65;0.95;;;5.00;99.90;;;;;;6208736;23;20016;-77
2023/11/26 05:50:34;;;;;;;2.97;0.40;;;5.00;99.90;;;;;;6210249;23;20040;-75
2023/11/26 05:53:00;;;;;;;2.85;0.73;;;5.00;99.90;;;;;;6209375;23;20035;-77
2023/11/26 05:55:25;;;;;;;2.58;0.45;;;5.00;99.90;;;;;;6208671;23;20013;-77
2023/11/26 05:57:51;;;;;;;6.45;0.93;;;5.00;99.90;;;;;;6207384;23;20012;-75
2023/11/26 06:00:18;;;;;;;2.40;0.40;;;5.00;99.90;;;;;;6208730;23;20021;-77
2023/11/26 06:02:44;;;;;;;6.03;1.55;;;5.00;99.90;;;;;;6209502;23;20090;-74
2023/11/26 06:05:09;;;;;;;2.80;0.57;;;5.00;99.90;;;;;;6208724;23;20013;-78
2023/11/26 06:07:35;;;;;;;4.38;0.70;;;5.00;99.90;;;;;;6208237;23;20013;-77
2023/11/26 06:10:00;;;;;;;5.07;0.38;;;4.90;99.90;;;;;;6207021;23;20008;-76
2023/11/26 06:12:26;;;;;;;4.55;0.50;;;4.90;99.90;;;;;;6210553;23;20013;-77
2023/11/26 06:14:51;;;;;;;4.40;0.60;;;4.90;99.90;;;;;;6208584;23;20005;-76
2023/11/26 06:17:17;;;;;;;1.30;0.32;;;4.90;99.90;;;;;;6208263;23;20821;-77
2023/11/26 06:19:43;;;;;;;3.17;0.60;;;4.90;99.90;;;;;;6209164;23;20030;-78
2023/11/26 06:22:08;;;;;;;4.40;0.47;;;4.90;99.90;;;;;;6233767;22;20017;-75
2023/11/26 06:24:34;;;;;;;5.63;0.85;;;4.90;99.90;;;;;;6209909;23;20019;-76
2023/11/26 06:27:00;;;;;;;6.30;1.20;;;4.90;99.90;;;;;;6206861;23;20091;-76
2023/11/26 06:29:26;;;;;;;9.73;0.85;;;4.90;99.90;;;;;;6208136;23;20036;-75
2023/11/26 06:31:51;;;;;;;5.63;0.85;;;4.90;99.90;;;;;;6208206;23;20035;-74
2023/11/26 06:34:19;;;;;;;4.13;0.95;;;4.90;99.90;;;;;;6209774;23;20028;-75
2023/11/26 06:36:44;;;;;;;1.60;0.40;;;4.90;99.90;;;;;;6208677;23;20015;-76
2023/11/26 06:39:10;;;;;;;3.58;0.47;;;4.90;99.90;;;;;;6209515;23;20000;-77
2023/11/26 06:41:39;;;;;;;7.60;1.10;;;4.90;99.90;;;;;;6209688;23;20019;-76
2023/11/26 06:44:06;;;;;;;14.38;1.15;;;4.90;99.90;;;;;;6206778;23;20112;-77
2023/11/26 06:46:32;;;;;;;4.97;0.40;;;4.90;99.90;;;;;;6208181;23;20016;-77
2023/11/26 06:48:58;;;;;;;4.88;0.60;;;4.90;99.90;;;;;;6196237;23;20016;-76
2023/11/26 06:51:24;;;;;;;3.15;0.68;;;4.90;99.90;;;;;;6207576;23;20008;-77
2023/11/26 06:53:51;;;;;;;1.00;0.38;;;4.90;99.90;;;;;;6208556;23;20005;-77
2023/11/26 06:56:17;;;;;;;6.47;0.82;;;4.90;99.90;;;;;;6208116;23;20043;-77
2023/11/26 06:58:44;;;;;;;4.22;0.52;;;4.90;99.90;;;;;;6210097;23;20012;-77
2023/11/26 07:01:10;;;;;;;6.18;0.63;;;4.90;99.90;;;;;;6209381;23;20066;-75
2023/11/26 07:03:37;;;;;;;8.80;1.08;;;4.90;99.90;;;;;;6208294;23;20480;-76
2023/11/26 07:06:07;;;;;;;1.75;0.40;;;4.90;99.90;;;;;;6205925;23;20078;-77
2023/11/26 07:08:34;;;;;;;2.85;0.73;;;4.90;99.90;;;;;;6207460;23;20087;-75
2023/11/26 07:10:59;;;;;;;5.03;1.05;;;4.90;99.90;;;;;;6207104;23;20008;-77
2023/11/26 07:13:25;;;;;;;3.55;0.73;;;4.80;99.90;;;;;;6207702;23;20023;-75
2023/11/26 07:15:51;;;;;;;5.43;0.38;;;4.90;99.90;;;;;;6207066;23;20012;-76
2023/11/26 07:18:21;;;;;;;4.18;0.30;;;4.90;99.90;;;;;;6209005;22;20526;-77
2023/11/26 07:20:46;;;;;;;2.40;0.52;;;4.90;99.90;;;;;;6206719;23;20012;-75
2023/11/26 07:23:13;;;;;;;5.40;0.50;;;4.90;99.90;;;;;;6207830;23;20018;-75
2023/11/26 07:25:39;;;;;;;4.40;0.55;;;4.90;99.90;;;;;;6210024;23;20024;-75
2023/11/26 07:28:08;;;;;;;1.95;0.35;;;5.00;99.90;;;;;;6208471;22;20084;-74
2023/11/26 07:30:52;;;;;;;3.72;0.50;;;4.90;99.90;;;;;;6208042;23;20047;-75
2023/11/26 07:33:17;;;;;;;5.38;0.40;;;5.00;99.90;;;;;;6207487;23;20401;-77
2023/11/26 07:35:43;;;;;;;4.32;0.50;;;5.00;99.90;;;;;;6208141;23;20024;-76
2023/11/26 07:38:09;;;;;;;7.07;0.50;;;5.00;99.90;;;;;;6209141;23;20434;-75
2023/11/26 07:40:34;;;;;;;2.35;0.30;;;5.10;99.90;;;;;;6209422;23;20024;-76
2023/11/26 07:43:00;;;;;;;6.03;1.42;;;5.10;99.90;;;;;;6208411;23;20328;-76
2023/11/26 07:45:27;;;;;;;7.53;2.15;;;5.10;99.90;;;;;;6208920;23;20009;-77
2023/11/26 07:47:53;;;;;;;5.35;1.08;;;5.10;99.90;;;;;;6206221;23;20009;-76
2023/11/26 07:50:20;;;;;;;5.00;0.50;;;5.20;99.90;;;;;;6209366;23;20024;-77
2023/11/26 07:52:46;;;;;;;3.33;0.70;;;5.20;99.90;;;;;;6205861;23;20800;-76
2023/11/26 07:55:12;;;;;;;3.28;0.65;;;5.20;99.90;;;;;;6207757;23;20001;-76
2023/11/26 07:57:39;;;;;;;3.28;0.82;;;5.20;99.90;;;;;;6208371;23;20016;-75
2023/11/26 08:00:06;;;;;;;2.53;0.85;;;5.20;99.90;;;;;;6207741;23;20327;-76
2023/11/26 08:02:31;;;;;;;2.90;0.57;;;5.20;99.90;;;;;;6207673;23;20012;-76
2023/11/26 08:04:57;;;;;;;4.88;0.50;;;5.20;99.90;;;;;;6207643;23;20092;-77
2023/11/26 08:07:29;;;;;;;5.30;1.15;;;5.20;99.90;;;;;;6203339;23;20097;-77
2023/11/26 08:09:55;;;;;;;4.65;0.68;;;5.30;99.90;;;;;;6205155;23;20013;-78
2023/11/26 08:12:23;;;;;;;3.30;0.75;;;5.20;99.90;;;;;;6206387;23;20397;-78
2023/11/26 08:14:52;;;;;;;6.93;0.98;;;5.30;99.90;;;;;;6206295;23;20328;-77
2023/11/26 08:17:22;;;;;;;4.95;0.70;;;5.30;99.90;;;;;;6207252;23;20028;-77
2023/11/26 08:19:48;;;;;;;3.08;0.47;;;5.30;99.90;;;;;;6207196;23;20019;-76
2023/11/26 08:22:15;;;;;;;4.40;0.65;;;5.40;99.90;;;;;;6205627;23;20063;-77
2023/11/26 08:24:42;;;;;;;11.43;1.23;;;5.40;99.90;;;;;;6208209;23;20009;-76
2023/11/26 08:27:13;;;;;;;14.63;1.35;;;5.50;99.90;;;;;;6204411;23;20008;-76
2023/11/26 08:29:42;;;;;;;7.57;0.90;;;5.50;99.90;;;;;;6206209;23;20016;-76
2023/11/26 08:32:11;;;;;;;5.20;0.82;;;5.50;99.90;;;;;;6204291;23;20017;-77
2023/11/26 08:34:38;;;;;;;4.97;0.95;;;5.60;99.90;;;;;;6206138;23;20013;-76
2023/11/26 08:37:08;;;;;;;2.00;0.55;;;5.60;99.90;;;;;;6206141;23;20023;-75
2023/11/26 08:39:38;;;;;;;4.70;0.90;;;5.60;99.90;;;;;;6206123;23;20020;-77
2023/11/26 08:42:04;;;;;;;8.55;0.85;;;5.60;99.90;;;;;;6206217;23;20222;-76
2023/11/26 08:44:32;;;;;;;5.88;1.05;;;5.70;99.90;;;;;;6205508;23;20013;-77
2023/11/26 08:46:59;;;;;;;4.50;0.98;;;5.70;99.90;;;;;;6204619;23;20013;-76
2023/11/26 08:49:26;;;;;;;5.35;0.95;;;5.70;99.90;;;;;;6207197;23;20091;-76
2023/11/26 08:51:54;;;;;;;5.93;1.20;;;5.80;99.90;;;;;;6207130;23;20603;-76
2023/11/26 08:54:20;;;;;;;4.80;0.98;;;5.80;99.90;;;;;;6205848;23;20043;-77
2023/11/26 08:56:45;;;;;;;2.33;1.00;;;5.90;99.90;;;;;;6206636;23;20076;-75
2023/11/26 08:59:11;;;;;;;4.60;0.93;;;5.90;99.90;;;;;;6205345;23;20032;-77
2023/11/26 09:01:39;;;;;;;6.57;0.93;;;6.00;99.90;;;;;;6205863;23;20196;-75
2023/11/26 09:04:05;;;;;;;3.60;1.02;;;6.10;99.90;;;;;;6207310;23;20004;-76
2023/11/26 09:06:31;;;;;;;6.78;0.93;;;6.10;99.90;;;;;;6210014;23;20024;-76
2023/11/26 09:08:56;;;;;;;6.13;0.90;;;6.10;99.90;;;;;;6206477;23;20012;-77
2023/11/26 09:11:22;;;;;;;7.82;1.23;;;6.10;99.90;;;;;;6208152;23;20008;-75
2023/11/26 09:13:51;;;;;;;6.28;1.02;;;6.20;99.90;;;;;;6207567;23;20426;-75
2023/11/26 09:16:17;;;;;;;5.03;1.77;;;6.20;99.90;;;;;;6210851;23;20005;-76
2023/11/26 09:18:43;;;;;;;3.20;1.05;;;6.20;99.90;;;;;;6210166;23;20076;-76
2023/11/26 09:21:10;;;;;;;8.05;1.02;;;6.30;99.90;;;;;;6208437;23;20012;-75
2023/11/26 09:23:36;;;;;;;3.30;0.65;;;6.30;99.90;;;;;;6209121;23;20345;-75
2023/11/26 09:26:02;;;;;;;4.80;1.23;;;6.40;99.90;;;;;;6209685;23;20032;-75
2023/11/26 09:28:28;;;;;;;6.82;0.75;;;6.50;99.90;;;;;;6210140;23;20013;-75
2023/11/26 09:30:54;;;;;;;11.60;1.35;;;6.50;99.90;;;;;;6209534;22;20023;-76
2023/11/26 09:33:19;;;;;;;2.75;0.68;;;6.60;99.90;;;;;;6210408;23;20021;-76
2023/11/26 09:35:45;;;;;;;4.80;0.80;;;6.60;99.90;;;;;;6205224;23;20042;-76
2023/11/26 09:38:10;;;;;;;5.18;0.90;;;6.60;99.90;;;;;;6207556;23;20008;-77
2023/11/26 09:40:42;;;;;;;5.38;1.83;;;6.60;99.90;;;;;;6203967;23;20017;-76
2023/11/26 09:43:08;;;;;;;5.00;0.93;;;6.60;99.90;;;;;;6206219;23;20442;-75
2023/11/26 09:45:34;;;;;;;5.30;1.48;;;6.70;99.90;;;;;;6209445;23;20017;-76
2023/11/26 09:47:59;;;;;;;4.68;0.80;;;6.70;99.90;;;;;;6209983;23;20017;-75
2023/11/26 09:50:28;;;;;;;4.70;0.82;;;6.70;99.90;;;;;;6209022;23;20020;-77
2023/11/26 09:52:54;;;;;;;4.72;0.77;;;6.70;99.90;;;;;;6209238;22;20095;-75
2023/11/26 09:55:19;;;;;;;5.85;1.15;;;6.70;99.90;;;;;;6209701;23;20035;-76
2023/11/26 09:57:45;;;;;;;3.40;0.60;;;6.80;99.90;;;;;;6208746;23;20013;-75
2023/11/26 10:00:12;;;;;;;1.02;0.52;;;6.80;99.90;;;;;;6208605;23;20013;-76
2023/11/26 10:02:39;;;;;;;5.90;1.13;;;6.70;99.90;;;;;;6208564;23;20446;-76
2023/11/26 10:05:06;;;;;;;8.38;0.63;;;6.70;99.90;;;;;;6207233;23;20385;-76
2023/11/26 10:07:36;;;;;;;6.65;1.48;;;6.80;99.90;;;;;;6206855;23;20376;-75
2023/11/26 10:10:09;;;;;;;6.30;0.90;;;6.80;99.90;;;;;;6199937;23;20023;-75
2023/11/26 10:12:55;;;;;;;4.63;0.68;;;6.80;99.90;;;;;;6207863;23;20009;-75
2023/11/26 10:15:23;;;;;;;5.18;1.17;;;6.80;99.90;;;;;;6206247;23;20013;-75
2023/11/26 10:18:03;;;;;;;3.67;1.05;;;6.80;99.90;;;;;;6204381;23;20019;-76
2023/11/26 10:20:29;;;;;;;3.17;0.75;;;6.90;99.90;;;;;;6209045;23;20012;-77
2023/11/26 10:22:56;;;;;;;4.43;0.40;;;6.90;99.90;;;;;;6206593;23;20040;-76
2023/11/26 10:25:23;;;;;;;6.45;1.30;;;6.90;99.90;;;;;;6209765;23;20035;-75
2023/11/26 10:27:52;;;;;;;3.63;0.70;;;6.90;99.90;;;;;;6209013;23;20474;-76
2023/11/26 10:30:32;;;;;;;10.18;2.63;;;7.00;99.90;;;;;;6209311;22;20012;-77
2023/11/26 10:33:02;;;;;;;3.43;0.83;;;7.00;99.90;;;;;;6203132;23;20086;-75
2023/11/26 10:35:43;;;;;;;7.23;1.93;;;7.10;99.90;;;;;;6207109;23;20244;-76
2023/11/26 10:38:09;;;;;;;8.27;1.10;;;7.10;99.90;;;;;;6203147;23;20505;-76
2023/11/26 10:40:35;;;;;;;4.07;1.15;;;7.10;99.90;;;;;;6208316;23;20445;-76
2023/11/26 10:43:04;;;;;;;8.88;0.88;;;7.20;99.90;;;;;;6205438;23;20443;-75
2023/11/26 10:45:31;;;;;;;1.50;0.60;;;7.20;99.90;;;;;;6209201;23;20104;-75
2023/11/26 10:48:10;;;;;;;5.80;1.05;;;7.20;99.90;;;;;;6206095;23;20069;-76
2023/11/26 10:50:41;;;;;;;6.80;0.88;;;7.30;99.90;;;;;;6208063;22;20447;-76
2023/11/26 10:53:20;;;;;;;7.72;0.77;;;7.30;99.90;;;;;;6207223;23;20064;-76
2023/11/26 10:55:49;;;;;;;10.52;1.17;;;7.40;99.90;;;;;;6207243;23;20083;-75
2023/11/26 10:58:19;;;;;;;3.25;0.80;;;7.40;99.90;;;;;;6205924;23;20016;-75
2023/11/26 11:00:55;;;;;;;3.57;0.70;;;7.40;99.90;;;;;;6204891;23;20008;-77
2023/11/26 11:03:23;;;;;;;4.88;0.50;;;7.40;99.90;;;;;;6208522;23;20095;-76
2023/11/26 11:05:50;;;;;;;6.05;0.50;;;7.40;99.90;;;;;;6207384;23;20639;-77
2023/11/26 11:08:16;;;;;;;11.02;0.95;;;7.40;99.90;;;;;;6206494;23;20016;-76
2023/11/26 11:11:00;;;;;;;4.25;0.65;;;7.40;99.90;;;;;;6206583;23;20091;-75
2023/11/26 11:13:27;;;;;;;4.65;0.70;;;7.40;99.90;;;;;;6207485;23;20023;-77
2023/11/26 11:15:53;;;;;;;2.72;0.50;;;7.40;99.90;;;;;;6207249;23;20044;-76
2023/11/26 11:18:28;;;;;;;5.68;1.13;;;7.50;99.90;;;;;;6209630;23;20008;-77
2023/11/26 11:21:10;;;;;;;4.47;0.68;;;7.50;99.90;;;;;;6207933;23;20451;-77
2023/11/26 11:23:40;;;;;;;6.35;0.70;;;7.50;99.90;;;;;;6209676;23;20027;-76
2023/11/26 11:26:09;;;;;;;9.05;1.80;;;7.50;99.90;;;;;;6207883;23;20394;-76
2023/11/26 11:28:42;;;;;;;4.57;0.80;;;7.50;99.90;;;;;;6207396;23;20008;-77
2023/11/26 11:31:18;;;;;;;3.97;0.90;;;7.60;99.90;;;;;;6206304;23;20019;-76
2023/11/26 11:33:56;;;;;;;3.92;0.73;;;7.50;99.90;;;;;;6209124;23;20012;-77
2023/11/26 11:36:41;;;;;;;3.85;1.73;;;7.50;99.90;;;;;;6205947;23;20110;-76
2023/11/26 11:39:14;;;;;;;4.07;1.10;;;7.50;99.90;;;;;;6207101;23;20020;-73
2023/11/26 11:41:57;;;;;;;2.40;0.63;;;7.50;99.90;;;;;;6206531;23;20020;-76
2023/11/26 11:44:33;;;;;;;2.67;0.80;;;7.50;99.90;;;;;;6203816;23;20035;-76
2023/11/26 11:47:02;;;;;;;7.97;2.00;;;7.50;99.90;;;;;;6203448;23;20008;-77
2023/11/26 11:50:04;;;;;;;8.35;1.00;;;7.60;99.90;;;;;;6205416;23;20035;-78
2023/11/26 11:52:29;;;;;;;4.75;1.35;;;7.60;99.90;;;;;;6207054;23;20059;-76
2023/11/26 11:54:58;;;;;;;6.57;0.50;;;7.60;99.90;;;;;;6207933;23;20435;-76
2023/11/26 11:57:28;;;;;;;8.57;1.35;;;7.60;99.90;;;;;;6207215;23;20009;-77
2023/11/26 12:00:03;;;;;;;9.43;1.35;;;7.60;99.90;;;;;;6206066;23;20004;-76
2023/11/26 12:02:34;;;;;;;4.15;1.20;;;7.60;99.90;;;;;;6209335;23;20091;-77
2023/11/26 12:04:59;;;;;;;14.18;1.20;;;7.60;99.90;;;;;;6207814;23;20063;-77
2023/11/26 12:07:31;;;;;;;4.80;1.27;;;7.60;99.90;;;;;;6207144;23;20669;-76
2023/11/26 12:09:59;;;;;;;6.13;1.10;;;7.60;99.90;;;;;;6207791;23;20020;-76
2023/11/26 12:12:24;;;;;;;4.70;1.15;;;7.60;99.90;;;;;;6209625;23;20008;-77
2023/11/26 12:14:50;;;;;;;5.00;2.20;;;7.60;99.90;;;;;;6207559;23;20518;-77
2023/11/26 12:17:16;;;;;;;9.60;2.22;;;7.60;99.90;;;;;;6207500;23;20096;-77
2023/11/26 12:19:43;;;;;;;5.55;1.23;;;7.60;99.90;;;;;;6207443;23;20036;-78
2023/11/26 12:22:10;;;;;;;6.35;1.65;;;7.60;99.90;;;;;;6204416;23;20020;-77
2023/11/26 12:24:37;;;;;;;6.55;1.23;;;7.60;99.90;;;;;;6207787;23;20019;-78
2023/11/26 12:27:03;;;;;;;1.92;0.60;;;7.60;99.90;;;;;;6206830;23;20013;-76
2023/11/26 12:29:34;;;;;;;8.63;1.02;;;7.60;99.90;;;;;;6205793;23;20071;-77
2023/11/26 12:32:06;;;;;;;;;;;7.60;99.90;;;;;;6206807;23;20020;-76
2023/11/26 12:34:39;;;;;;;2.67;0.40;;;7.60;99.90;;;;;;6207604;22;19975;-77
2023/11/26 12:37:07;;;;;;;6.18;0.82;;;7.70;99.90;;;;;;6206160;23;20183;-78
2023/11/26 12:39:34;;;;;;;4.28;1.02;;;7.70;99.90;;;;;;6205226;23;20035;-76
2023/11/26 12:42:00;;;;;;;4.00;0.47;;;7.80;99.90;;;;;;6204333;23;20379;-77
2023/11/26 12:44:26;;;;;;;3.85;0.68;;;7.80;99.90;;;;;;6206528;23;20533;-75
2023/11/26 12:47:03;;;;;;;5.45;0.88;;;7.80;99.90;;;;;;6204507;23;20005;-76
2023/11/26 12:49:28;;;;;;;2.75;0.80;;;7.80;99.90;;;;;;6206486;23;20354;-77
2023/11/26 12:51:54;;;;;;;4.53;0.60;;;7.80;99.90;;;;;;6207326;23;20005;-77
2023/11/26 12:54:23;;;;;;;3.60;0.80;;;7.80;99.90;;;;;;6206614;23;20016;-78
2023/11/26 12:56:51;;;;;;;9.43;1.33;;;7.80;99.90;;;;;;6206019;23;20043;-77
2023/11/26 12:59:17;;;;;;;4.38;0.55;;;7.80;99.90;;;;;;6206728;23;20051;-76